Canakkale Airport Canakkale TR
ICAO: LTBH
IATA: CKZ
Category: Medium
Scheduled Services: Yes

Elevation: 23 ft
TransAlt. 10000 ft.

Airport Communications:
YESILKOY APP:122.1
TWR:123.6

LTBH Zoom In..

If you have problems with the map follow the link
https://www.worldairports.se/pages/airport.php?
ICAO=LTBH

Runways:

(A) RW 04 length 5906 ft width 98 ft
---- / hdg 37

(B) RW 22 length 5906 ft width 98 ft
---- / hdg 217

Location; LTBH
Day. 13 / Time. 18.50 Zulu
* QNH: 1020
* Temperature: 06° c. 42.8°f.
* Wind from: 050° Speed 04 kn.
Dewpoint: 02° c.
Visibility: 10 km or more.
Clouds: Scattered 3500 ft.
Clouds: Broken 1000 ft.

LTBH 131850Z 05004KT 020V130 9999 SCT035 BKN100 06/02 Q1020


Wind From 050°
Speed 04 kn.

 
 
jpsmedia.com for Web Design worldairports.se 2018   terms of use